sensor_id;sensor_type;location;lat;lon;timestamp;pressure;altitude;pressure_sealevel;temperature;humidity
54439;BME280;40347;53.848;27.498;2023-03-25T00:03:44;997.7;;;13.1;75.5
54439;BME280;40347;53.848;27.498;2023-03-25T00:08:50;997.7;;;13.1;75.7
54439;BME280;40347;53.848;27.498;2023-03-25T00:13:34;997.7;;;13.1;76
54439;BME280;40347;53.848;27.498;2023-03-25T00:18:50;997.7;;;13.1;75.9
54439;BME280;40347;53.848;27.498;2023-03-25T00:23:40;997.7;;;13.1;75.8
54439;BME280;40347;53.848;27.498;2023-03-25T00:28:35;997.7;;;13.1;75.9
54439;BME280;40347;53.848;27.498;2023-03-25T00:33:34;997.8;;;13.1;76
54439;BME280;40347;53.848;27.498;2023-03-25T00:38:34;997.8;;;13.1;76
54439;BME280;40347;53.848;27.498;2023-03-25T00:43:34;997.8;;;13.1;75.9
54439;BME280;40347;53.848;27.498;2023-03-25T00:48:46;997.8;;;13;76
54439;BME280;40347;53.848;27.498;2023-03-25T00:53:51;997.7;;;12.9;76.1
54439;BME280;40347;53.848;27.498;2023-03-25T00:59:02;997.7;;;12.9;76.3
54439;BME280;40347;53.848;27.498;2023-03-25T01:03:34;997.7;;;12.9;76.3
54439;BME280;40347;53.848;27.498;2023-03-25T01:08:34;997.6;;;12.9;75.9
54439;BME280;40347;53.848;27.498;2023-03-25T01:13:34;997.6;;;13;76
54439;BME280;40347;53.848;27.498;2023-03-25T01:18:44;997.6;;;13;76.3
54439;BME280;40347;53.848;27.498;2023-03-25T01:23:34;997.6;;;13;76
54439;BME280;40347;53.848;27.498;2023-03-25T01:28:34;997.6;;;13.1;76
54439;BME280;40347;53.848;27.498;2023-03-25T01:33:34;997.6;;;13.2;75.9
54439;BME280;40347;53.848;27.498;2023-03-25T01:38:34;997.6;;;13.2;75.6
54439;BME280;40347;53.848;27.498;2023-03-25T01:43:34;997.6;;;13.2;75.1
54439;BME280;40347;53.848;27.498;2023-03-25T01:48:41;997.6;;;13.2;75.4
54439;BME280;40347;53.848;27.498;2023-03-25T01:53:44;997.7;;;13.2;75.4
54439;BME280;40347;53.848;27.498;2023-03-25T01:58:34;997.7;;;13.4;75.2
54439;BME280;40347;53.848;27.498;2023-03-25T02:03:40;997.6;;;13.4;75.2
54439;BME280;40347;53.848;27.498;2023-03-25T02:08:35;997.7;;;13.4;75.1
54439;BME280;40347;53.848;27.498;2023-03-25T02:13:46;997.8;;;13.4;74.8
54439;BME280;40347;53.848;27.498;2023-03-25T02:18:37;997.8;;;13.4;75
54439;BME280;40347;53.848;27.498;2023-03-25T02:23:59;997.7;;;13.4;75.1
54439;BME280;40347;53.848;27.498;2023-03-25T02:28:35;997.8;;;13.4;75.2
54439;BME280;40347;53.848;27.498;2023-03-25T02:33:55;997.8;;;13.5;75.3
54439;BME280;40347;53.848;27.498;2023-03-25T02:38:52;997.8;;;13.4;75.5
54439;BME280;40347;53.848;27.498;2023-03-25T02:43:44;997.9;;;12.9;73.2
54439;BME280;40347;53.848;27.498;2023-03-25T02:48:52;998.2;;;11.9;70.4
54439;BME280;40347;53.848;27.498;2023-03-25T02:53:40;998.2;;;11.4;72.7
54439;BME280;40347;53.848;27.498;2023-03-25T02:58:34;998.1;;;11.3;73.7
54439;BME280;40347;53.848;27.498;2023-03-25T03:03:34;998.2;;;11.1;73.3
54439;BME280;40347;53.848;27.498;2023-03-25T03:08:50;998.1;;;10.9;72.9
54439;BME280;40347;53.848;27.498;2023-03-25T03:14:07;998.2;;;10.9;73.3
54439;BME280;40347;53.848;27.498;2023-03-25T03:18:42;998.3;;;10.9;72.6
54439;BME280;40347;53.848;27.498;2023-03-25T03:23:47;998.4;;;11;72.9
54439;BME280;40347;53.848;27.498;2023-03-25T03:28:36;998.6;;;11.2;72.1
54439;BME280;40347;53.848;27.498;2023-03-25T03:34:02;998.7;;;11.3;71.5
54439;BME280;40347;53.848;27.498;2023-03-25T03:38:36;998.7;;;11;71.8
54439;BME280;40347;53.848;27.498;2023-03-25T03:43:36;998.6;;;10.9;72.6
54439;BME280;40347;53.848;27.498;2023-03-25T03:48:51;998.5;;;10.7;73
54439;BME280;40347;53.848;27.498;2023-03-25T03:53:46;998.6;;;10.5;74
54439;BME280;40347;53.848;27.498;2023-03-25T03:58:44;998.6;;;10.5;74.3
54439;BME280;40347;53.848;27.498;2023-03-25T04:03:51;998.6;;;10.6;74.6
54439;BME280;40347;53.848;27.498;2023-03-25T04:08:42;998.4;;;10.6;74.6
54439;BME280;40347;53.848;27.498;2023-03-25T04:13:35;998.5;;;10.8;73.8
54439;BME280;40347;53.848;27.498;2023-03-25T04:18:52;998.5;;;10.9;73
54439;BME280;40347;53.848;27.498;2023-03-25T04:23:34;998.7;;;11.1;72.6
54439;BME280;40347;53.848;27.498;2023-03-25T04:28:34;998.8;;;11.2;71.6
54439;BME280;40347;53.848;27.498;2023-03-25T04:33:50;998.8;;;11.3;71.2
54439;BME280;40347;53.848;27.498;2023-03-25T04:39:00;998.8;;;11.4;70.3
54439;BME280;40347;53.848;27.498;2023-03-25T04:43:46;998.8;;;11.4;69.6
54439;BME280;40347;53.848;27.498;2023-03-25T04:48:35;998.7;;;11.5;69.4
54439;BME280;40347;53.848;27.498;2023-03-25T04:53:44;998.8;;;11.6;68.6
54439;BME280;40347;53.848;27.498;2023-03-25T04:58:34;998.9;;;11.6;67.7
54439;BME280;40347;53.848;27.498;2023-03-25T05:03:44;998.9;;;11.5;67.6
54439;BME280;40347;53.848;27.498;2023-03-25T05:08:34;998.8;;;11.4;67.3
54439;BME280;40347;53.848;27.498;2023-03-25T05:13:44;998.8;;;11.6;67.2
54439;BME280;40347;53.848;27.498;2023-03-25T05:18:48;998.8;;;11.7;66.9
54439;BME280;40347;53.848;27.498;2023-03-25T05:23:34;998.9;;;11.6;64.4
54439;BME280;40347;53.848;27.498;2023-03-25T05:28:59;999.1;;;11.4;64.4
54439;BME280;40347;53.848;27.498;2023-03-25T05:33:35;999.2;;;11.3;65
54439;BME280;40347;53.848;27.498;2023-03-25T05:38:44;999.2;;;11.5;65.2
54439;BME280;40347;53.848;27.498;2023-03-25T05:43:48;999.4;;;11.6;65
54439;BME280;40347;53.848;27.498;2023-03-25T05:48:40;999.3;;;11.7;64.8
54439;BME280;40347;53.848;27.498;2023-03-25T05:53:34;999.4;;;11.7;64.6
54439;BME280;40347;53.848;27.498;2023-03-25T05:58:47;999.5;;;11.7;64
54439;BME280;40347;53.848;27.498;2023-03-25T06:03:56;999.5;;;11.6;64.3
54439;BME280;40347;53.848;27.498;2023-03-25T06:09:01;999.4;;;11.5;64.6
54439;BME280;40347;53.848;27.498;2023-03-25T06:13:41;999.6;;;11.5;64.5
54439;BME280;40347;53.848;27.498;2023-03-25T06:18:34;999.7;;;11.3;64.4
54439;BME280;40347;53.848;27.498;2023-03-25T06:23:40;999.8;;;11.3;64.7
54439;BME280;40347;53.848;27.498;2023-03-25T06:28:34;999.8;;;11.3;64.4
54439;BME280;40347;53.848;27.498;2023-03-25T06:33:48;999.8;;;11.4;64
54439;BME280;40347;53.848;27.498;2023-03-25T06:38:40;999.9;;;11.5;63.2
54439;BME280;40347;53.848;27.498;2023-03-25T06:44:00;999.9;;;11.7;63.2
54439;BME280;40347;53.848;27.498;2023-03-25T06:48:46;1000;;;12;61.8
54439;BME280;40347;53.848;27.498;2023-03-25T06:54:00;1000;;;12.4;62
54439;BME280;40347;53.848;27.498;2023-03-25T06:58:34;1000.1;;;12.7;61.1
54439;BME280;40347;53.848;27.498;2023-03-25T07:03:58;1000;;;13.2;61.1
54439;BME280;40347;53.848;27.498;2023-03-25T07:08:34;1000.1;;;13.6;60.6
54439;BME280;40347;53.848;27.498;2023-03-25T07:13:46;1000.1;;;13.8;59.8
54439;BME280;40347;53.848;27.498;2023-03-25T07:18:46;1000.1;;;13.8;58.8
54439;BME280;40347;53.848;27.498;2023-03-25T07:23:58;1000.1;;;13.5;57.8
54439;BME280;40347;53.848;27.498;2023-03-25T07:28:34;1000;;;13.3;58.5
54439;BME280;40347;53.848;27.498;2023-03-25T07:33:34;1000.1;;;13.4;58.2
54439;BME280;40347;53.848;27.498;2023-03-25T07:38:34;1000.2;;;13.4;58
54439;BME280;40347;53.848;27.498;2023-03-25T07:43:44;1000.2;;;13.4;58.3
54439;BME280;40347;53.848;27.498;2023-03-25T07:49:00;1000.3;;;13.3;57.5
54439;BME280;40347;53.848;27.498;2023-03-25T07:53:43;1000.4;;;13.4;58
54439;BME280;40347;53.848;27.498;2023-03-25T07:58:48;1000.4;;;13.7;57
54439;BME280;40347;53.848;27.498;2023-03-25T08:03:46;1000.4;;;13.9;56.9
54439;BME280;40347;53.848;27.498;2023-03-25T08:09:00;1000.3;;;13.9;56.8
54439;BME280;40347;53.848;27.498;2023-03-25T08:13:34;1000.3;;;13.7;56.2
54439;BME280;40347;53.848;27.498;2023-03-25T08:18:46;1000.3;;;13.4;56.9
54439;BME280;40347;53.848;27.498;2023-03-25T08:23:58;1000.3;;;13.4;56.6
54439;BME280;40347;53.848;27.498;2023-03-25T08:28:34;1000.3;;;13.4;55.5
54439;BME280;40347;53.848;27.498;2023-03-25T08:33:34;1000.2;;;13.5;56.2
54439;BME280;40347;53.848;27.498;2023-03-25T08:39:00;1000.2;;;13.6;56.1
54439;BME280;40347;53.848;27.498;2023-03-25T08:43:34;1000.3;;;13.7;54.9
54439;BME280;40347;53.848;27.498;2023-03-25T08:49:00;1000.3;;;13.9;55.2
54439;BME280;40347;53.848;27.498;2023-03-25T08:54:08;1000.3;;;14.1;54.7
54439;BME280;40347;53.848;27.498;2023-03-25T08:58:34;1000.3;;;14;54.1
54439;BME280;40347;53.848;27.498;2023-03-25T09:04:00;1000.2;;;14.3;53.4
54439;BME280;40347;53.848;27.498;2023-03-25T09:08:44;1000.2;;;14.4;52.8
54439;BME280;40347;53.848;27.498;2023-03-25T09:13:48;1000.2;;;14.3;52.5
54439;BME280;40347;53.848;27.498;2023-03-25T09:18:46;1000.2;;;14.1;50.8
54439;BME280;40347;53.848;27.498;2023-03-25T09:23:48;1000.1;;;14;51.4
54439;BME280;40347;53.848;27.498;2023-03-25T09:28:34;1000;;;14;51.5
54439;BME280;40347;53.848;27.498;2023-03-25T09:33:44;1000;;;14.4;51.4
54439;BME280;40347;53.848;27.498;2023-03-25T09:38:34;1000.1;;;14.7;50.9
54439;BME280;40347;53.848;27.498;2023-03-25T09:43:44;1000.1;;;15;50.5
54439;BME280;40347;53.848;27.498;2023-03-25T09:48:45;1000;;;15;49.8
54439;BME280;40347;53.848;27.498;2023-03-25T09:53:49;1000;;;15;48.7
54439;BME280;40347;53.848;27.498;2023-03-25T09:58:43;1000;;;14.9;48.4
54439;BME280;40347;53.848;27.498;2023-03-25T10:03:36;1000.1;;;14.8;45.9
54439;BME280;40347;53.848;27.498;2023-03-25T10:08:57;1000.1;;;14.5;44.7
54439;BME280;40347;53.848;27.498;2023-03-25T10:13:37;1000.1;;;14.6;46.7
54439;BME280;40347;53.848;27.498;2023-03-25T10:18:38;1000;;;15.2;46.8
54439;BME280;40347;53.848;27.498;2023-03-25T10:23:54;1000;;;15.9;47.4
54439;BME280;40347;53.848;27.498;2023-03-25T10:29:02;1000;;;16.3;46.1
54439;BME280;40347;53.848;27.498;2023-03-25T10:33:35;1000;;;16.3;44.7
54439;BME280;40347;53.848;27.498;2023-03-25T10:39:01;999.9;;;16.3;44.5
54439;BME280;40347;53.848;27.498;2023-03-25T10:43:47;999.9;;;16.5;43.9
54439;BME280;40347;53.848;27.498;2023-03-25T10:48:45;999.8;;;16.5;45.4
54439;BME280;40347;53.848;27.498;2023-03-25T10:53:35;999.7;;;16.7;45.2
54439;BME280;40347;53.848;27.498;2023-03-25T10:58:36;999.7;;;16.7;44.2
54439;BME280;40347;53.848;27.498;2023-03-25T11:03:48;999.6;;;16.7;43.5
54439;BME280;40347;53.848;27.498;2023-03-25T11:09:21;999.6;;;17;43.9
54439;BME280;40347;53.848;27.498;2023-03-25T11:13:35;999.6;;;17.2;42.9
54439;BME280;40347;53.848;27.498;2023-03-25T11:18:35;999.7;;;17.6;42.5
54439;BME280;40347;53.848;27.498;2023-03-25T11:23:35;999.6;;;17.7;40.3
54439;BME280;40347;53.848;27.498;2023-03-25T11:29:04;999.6;;;17.5;39.8
54439;BME280;40347;53.848;27.498;2023-03-25T11:33:35;999.6;;;17.5;41.1
54439;BME280;40347;53.848;27.498;2023-03-25T11:38:57;999.5;;;17.6;40.8
54439;BME280;40347;53.848;27.498;2023-03-25T11:43:35;999.6;;;17.6;40.6
54439;BME280;40347;53.848;27.498;2023-03-25T11:48:45;999.7;;;17.6;39
54439;BME280;40347;53.848;27.498;2023-03-25T11:53:45;999.6;;;17.4;39.3
54439;BME280;40347;53.848;27.498;2023-03-25T11:58:35;999.6;;;17.6;40.3
54439;BME280;40347;53.848;27.498;2023-03-25T12:03:35;999.6;;;17.9;40.3
54439;BME280;40347;53.848;27.498;2023-03-25T12:08:40;999.6;;;18.2;38.8
54439;BME280;40347;53.848;27.498;2023-03-25T12:13:51;999.6;;;18.3;39.7
54439;BME280;40347;53.848;27.498;2023-03-25T12:18:47;999.5;;;18.5;39.8
54439;BME280;40347;53.848;27.498;2023-03-25T12:23:48;999.5;;;18.4;39.8
54439;BME280;40347;53.848;27.498;2023-03-25T12:29:00;999.5;;;18.3;39.7
54439;BME280;40347;53.848;27.498;2023-03-25T12:34:05;999.5;;;18.2;39.9
54439;BME280;40347;53.848;27.498;2023-03-25T12:38:48;999.5;;;18.1;39.6
54439;BME280;40347;53.848;27.498;2023-03-25T12:43:37;999.5;;;17.8;40.9
54439;BME280;40347;53.848;27.498;2023-03-25T12:48:51;999.4;;;17.3;40.9
54439;BME280;40347;53.848;27.498;2023-03-25T12:53:38;999.4;;;16.8;41.2
54439;BME280;40347;53.848;27.498;2023-03-25T12:59:07;999.5;;;16.7;41.8
54439;BME280;40347;53.848;27.498;2023-03-25T13:03:51;999.5;;;16.7;40.8
54439;BME280;40347;53.848;27.498;2023-03-25T13:08:35;999.4;;;16.7;41.4
54439;BME280;40347;53.848;27.498;2023-03-25T13:13:35;999.4;;;16.5;41
54439;BME280;40347;53.848;27.498;2023-03-25T13:18:36;999.4;;;16.2;41.9
54439;BME280;40347;53.848;27.498;2023-03-25T13:24:28;999.4;;;16.1;42.3
54439;BME280;40347;53.848;27.498;2023-03-25T13:28:47;999.3;;;16.1;42.5
54439;BME280;40347;53.848;27.498;2023-03-25T13:33:46;999.3;;;16;42.9
54439;BME280;40347;53.848;27.498;2023-03-25T13:38:55;999.3;;;16.3;43
54439;BME280;40347;53.848;27.498;2023-03-25T13:43:44;999.2;;;16.5;42.8
54439;BME280;40347;53.848;27.498;2023-03-25T13:48:37;999.2;;;16.5;42.7
54439;BME280;40347;53.848;27.498;2023-03-25T13:53:35;999.2;;;16.4;42.9
54439;BME280;40347;53.848;27.498;2023-03-25T13:58:50;999.2;;;16.5;43.1
54439;BME280;40347;53.848;27.498;2023-03-25T14:03:51;999.2;;;16.6;42.9
54439;BME280;40347;53.848;27.498;2023-03-25T14:08:54;999.1;;;16.8;42.9
54439;BME280;40347;53.848;27.498;2023-03-25T14:14:04;999.1;;;16.8;43
54439;BME280;40347;53.848;27.498;2023-03-25T14:18:38;999.1;;;16.8;42.7
54439;BME280;40347;53.848;27.498;2023-03-25T14:24:03;999.1;;;16.8;43
54439;BME280;40347;53.848;27.498;2023-03-25T14:28:47;999.1;;;16.9;43.1
54439;BME280;40347;53.848;27.498;2023-03-25T14:34:23;999.1;;;16.9;42.9
54439;BME280;40347;53.848;27.498;2023-03-25T14:38:51;999.1;;;16.9;42.7
54439;BME280;40347;53.848;27.498;2023-03-25T14:43:35;999;;;16.9;42.5
54439;BME280;40347;53.848;27.498;2023-03-25T14:49:08;999;;;16.9;43
54439;BME280;40347;53.848;27.498;2023-03-25T14:53:35;998.9;;;16.7;42.9
54439;BME280;40347;53.848;27.498;2023-03-25T14:58:52;999;;;16.7;43.2
54439;BME280;40347;53.848;27.498;2023-03-25T15:03:35;999;;;16.5;43.5
54439;BME280;40347;53.848;27.498;2023-03-25T15:08:35;999;;;16.3;43.6
54439;BME280;40347;53.848;27.498;2023-03-25T15:14:09;999;;;16.2;43.9
54439;BME280;40347;53.848;27.498;2023-03-25T15:19:07;999;;;16;44
54439;BME280;40347;53.848;27.498;2023-03-25T15:23:56;999;;;16;44.3
54439;BME280;40347;53.848;27.498;2023-03-25T15:28:38;999;;;16.1;44.4
54439;BME280;40347;53.848;27.498;2023-03-25T15:33:56;999;;;16.1;44.3
54439;BME280;40347;53.848;27.498;2023-03-25T15:38:41;998.9;;;15.9;44.2
54439;BME280;40347;53.848;27.498;2023-03-25T15:43:38;998.8;;;15.6;44.7
54439;BME280;40347;53.848;27.498;2023-03-25T15:48:41;998.9;;;15.4;45.1
54439;BME280;40347;53.848;27.498;2023-03-25T15:53:38;999;;;15.1;45.5
54439;BME280;40347;53.848;27.498;2023-03-25T15:58:35;998.9;;;14.9;45.7
54439;BME280;40347;53.848;27.498;2023-03-25T16:03:35;998.9;;;14.7;46.3
54439;BME280;40347;53.848;27.498;2023-03-25T16:09:12;998.9;;;14.4;46.5
54439;BME280;40347;53.848;27.498;2023-03-25T16:13:41;998.9;;;14.4;46.7
54439;BME280;40347;53.848;27.498;2023-03-25T16:18:51;998.9;;;14.2;47.1
54439;BME280;40347;53.848;27.498;2023-03-25T16:23:45;998.9;;;14.2;47.3
54439;BME280;40347;53.848;27.498;2023-03-25T16:28:45;998.9;;;14.1;47.4
54439;BME280;40347;53.848;27.498;2023-03-25T16:34:28;998.9;;;13.9;47.8
54439;BME280;40347;53.848;27.498;2023-03-25T16:38:35;998.9;;;13.8;48.1
54439;BME280;40347;53.848;27.498;2023-03-25T16:44:03;998.9;;;13.8;48.4
54439;BME280;40347;53.848;27.498;2023-03-25T16:48:46;998.9;;;13.8;48.5
54439;BME280;40347;53.848;27.498;2023-03-25T16:53:35;998.9;;;13.7;48.9
54439;BME280;40347;53.848;27.498;2023-03-25T16:58:49;998.9;;;13.7;49
54439;BME280;40347;53.848;27.498;2023-03-25T17:03:45;998.9;;;13.6;49.5
54439;BME280;40347;53.848;27.498;2023-03-25T17:08:51;998.9;;;13.5;49.8
54439;BME280;40347;53.848;27.498;2023-03-25T17:13:41;998.9;;;13.5;49.9
54439;BME280;40347;53.848;27.498;2023-03-25T17:18:35;998.9;;;13.4;50
54439;BME280;40347;53.848;27.498;2023-03-25T17:23:47;998.9;;;13.4;50.1
54439;BME280;40347;53.848;27.498;2023-03-25T17:28:35;998.9;;;13.3;50.2
54439;BME280;40347;53.848;27.498;2023-03-25T17:33:35;998.9;;;13.2;50.5
54439;BME280;40347;53.848;27.498;2023-03-25T17:38:36;998.8;;;13.1;50.8
54439;BME280;40347;53.848;27.498;2023-03-25T17:43:35;998.8;;;13.1;51
54439;BME280;40347;53.848;27.498;2023-03-25T17:48:35;998.8;;;13.1;51.1
54439;BME280;40347;53.848;27.498;2023-03-25T17:53:55;998.8;;;13;51.4
54439;BME280;40347;53.848;27.498;2023-03-25T17:59:04;998.9;;;12.9;51.6
54439;BME280;40347;53.848;27.498;2023-03-25T18:03:55;998.9;;;12.9;51.7
54439;BME280;40347;53.848;27.498;2023-03-25T18:08:35;998.9;;;12.8;52.2
54439;BME280;40347;53.848;27.498;2023-03-25T18:13:55;998.8;;;12.8;52.1
54439;BME280;40347;53.848;27.498;2023-03-25T18:18:35;998.9;;;12.8;52.3
54439;BME280;40347;53.848;27.498;2023-03-25T18:23:35;998.9;;;12.7;52.6
54439;BME280;40347;53.848;27.498;2023-03-25T18:28:35;998.9;;;12.7;53.1
54439;BME280;40347;53.848;27.498;2023-03-25T18:33:35;998.9;;;12.7;53.2
54439;BME280;40347;53.848;27.498;2023-03-25T18:38:35;998.8;;;12.6;53.1
54439;BME280;40347;53.848;27.498;2023-03-25T18:43:41;998.8;;;12.6;53.3
54439;BME280;40347;53.848;27.498;2023-03-25T18:49:01;998.7;;;12.6;53.3
54439;BME280;40347;53.848;27.498;2023-03-25T18:53:41;998.7;;;12.5;53.6
54439;BME280;40347;53.848;27.498;2023-03-25T18:58:35;998.6;;;12.4;53.9
54439;BME280;40347;53.848;27.498;2023-03-25T19:03:35;998.5;;;12.5;53.8
54439;BME280;40347;53.848;27.498;2023-03-25T19:08:41;998.5;;;12.4;53.8
54439;BME280;40347;53.848;27.498;2023-03-25T19:13:51;998.5;;;12.4;53.7
54439;BME280;40347;53.848;27.498;2023-03-25T19:18:47;998.4;;;12.3;53.5
54439;BME280;40347;53.848;27.498;2023-03-25T19:23:35;998.5;;;12.2;53.5
54439;BME280;40347;53.848;27.498;2023-03-25T19:28:47;998.5;;;12.2;53.6
54439;BME280;40347;53.848;27.498;2023-03-25T19:34:07;998.5;;;12.2;53.6
54439;BME280;40347;53.848;27.498;2023-03-25T19:39:03;998.5;;;12.1;53.9
54439;BME280;40347;53.848;27.498;2023-03-25T19:44:25;998.5;;;12.1;53.8
54439;BME280;40347;53.848;27.498;2023-03-25T19:48:35;998.4;;;12;54
54439;BME280;40347;53.848;27.498;2023-03-25T19:53:47;998.5;;;12;54.1
54439;BME280;40347;53.848;27.498;2023-03-25T19:58:35;998.5;;;11.9;54.6
54439;BME280;40347;53.848;27.498;2023-03-25T20:04:27;998.6;;;11.9;54.6
54439;BME280;40347;53.848;27.498;2023-03-25T20:08:35;998.5;;;11.8;54.9
54439;BME280;40347;53.848;27.498;2023-03-25T20:13:35;998.5;;;11.7;55
54439;BME280;40347;53.848;27.498;2023-03-25T20:18:47;998.5;;;11.7;55.1
54439;BME280;40347;53.848;27.498;2023-03-25T20:23:35;998.4;;;11.5;55.3
54439;BME280;40347;53.848;27.498;2023-03-25T20:29:03;998.4;;;11.5;55.5
54439;BME280;40347;53.848;27.498;2023-03-25T20:33:53;998.4;;;11.5;55.6
54439;BME280;40347;53.848;27.498;2023-03-25T20:39:09;998.4;;;11.5;55.8
54439;BME280;40347;53.848;27.498;2023-03-25T20:43:35;998.4;;;11.4;55.9
54439;BME280;40347;53.848;27.498;2023-03-25T20:48:53;998.4;;;11.3;56.3
54439;BME280;40347;53.848;27.498;2023-03-25T20:53:35;998.3;;;11.3;56.4
54439;BME280;40347;53.848;27.498;2023-03-25T20:58:41;998.3;;;11.3;56.6
54439;BME280;40347;53.848;27.498;2023-03-25T21:03:35;998.2;;;11.3;56.4
54439;BME280;40347;53.848;27.498;2023-03-25T21:08:47;998.2;;;11.2;56.6
54439;BME280;40347;53.848;27.498;2023-03-25T21:13:41;998.2;;;11.2;56.7
54439;BME280;40347;53.848;27.498;2023-03-25T21:18:35;998.1;;;11.2;56.8
54439;BME280;40347;53.848;27.498;2023-03-25T21:23:35;998.1;;;11.1;57
54439;BME280;40347;53.848;27.498;2023-03-25T21:28:36;998.1;;;11.2;57.1
54439;BME280;40347;53.848;27.498;2023-03-25T21:33:47;998.1;;;11.1;57.1
54439;BME280;40347;53.848;27.498;2023-03-25T21:38:35;998;;;11.1;57.3
54439;BME280;40347;53.848;27.498;2023-03-25T21:43:51;997.9;;;11;57.5
54439;BME280;40347;53.848;27.498;2023-03-25T21:48:35;997.9;;;11;57.7
54439;BME280;40347;53.848;27.498;2023-03-25T21:53:35;997.9;;;11;57.7
54439;BME280;40347;53.848;27.498;2023-03-25T21:58:35;997.8;;;10.9;57.9
54439;BME280;40347;53.848;27.498;2023-03-25T22:03:41;997.8;;;10.8;57.8
54439;BME280;40347;53.848;27.498;2023-03-25T22:08:51;997.7;;;10.8;58.1
54439;BME280;40347;53.848;27.498;2023-03-25T22:13:35;997.7;;;10.7;58.3
54439;BME280;40347;53.848;27.498;2023-03-25T22:18:57;997.6;;;10.7;58.3
54439;BME280;40347;53.848;27.498;2023-03-25T22:23:48;997.6;;;10.6;58.4
54439;BME280;40347;53.848;27.498;2023-03-25T22:28:35;997.5;;;10.6;58.3
54439;BME280;40347;53.848;27.498;2023-03-25T22:34:03;997.5;;;10.6;58.2
54439;BME280;40347;53.848;27.498;2023-03-25T22:38:45;997.5;;;10.5;58.3
54439;BME280;40347;53.848;27.498;2023-03-25T22:43:51;997.5;;;10.5;58.4
54439;BME280;40347;53.848;27.498;2023-03-25T22:48:35;997.4;;;10.5;58.3
54439;BME280;40347;53.848;27.498;2023-03-25T22:53:35;997.4;;;10.5;58.2
54439;BME280;40347;53.848;27.498;2023-03-25T22:58:51;997.3;;;10.4;58.5
54439;BME280;40347;53.848;27.498;2023-03-25T23:03:35;997.3;;;10.4;58.4
54439;BME280;40347;53.848;27.498;2023-03-25T23:08:36;997.3;;;10.4;58.5
54439;BME280;40347;53.848;27.498;2023-03-25T23:13:35;997.3;;;10.3;58.6
54439;BME280;40347;53.848;27.498;2023-03-25T23:18:45;997.2;;;10.4;58.4
54439;BME280;40347;53.848;27.498;2023-03-25T23:23:35;997.1;;;10.3;58.7
54439;BME280;40347;53.848;27.498;2023-03-25T23:28:35;997;;;10.3;58.7
54439;BME280;40347;53.848;27.498;2023-03-25T23:34:05;997;;;10.3;58.6
54439;BME280;40347;53.848;27.498;2023-03-25T23:38:47;997;;;10.4;58.6
54439;BME280;40347;53.848;27.498;2023-03-25T23:43:53;997;;;10.5;58.4
54439;BME280;40347;53.848;27.498;2023-03-25T23:48:51;997;;;10.7;58.1
54439;BME280;40347;53.848;27.498;2023-03-25T23:53:57;997;;;10.9;57.8
54439;BME280;40347;53.848;27.498;2023-03-25T23:59:15;997;;;11;57.4
